METAR Data
IDs: Format: Raw Decoded Include TAF

Data at: 0320 UTC 14 Dec 2018

EDDV 140250Z 08009KT 9999 BKN008 01/M01 Q1023

TAF EDDV 132300Z 1400/1424 08008KT 9999 BKN014
  TEMPO 1400/1408 BKN008
  PROB30
  TEMPO 1400/1412 SCT012 BKN020
  BECMG 1412/1414 SCT015 BKN020